createdAt,value
2016-04-10T00:01:04.202Z,6.6
2016-04-10T00:04:16.991Z,6.6
2016-04-10T00:07:26.408Z,6.5
2016-04-10T00:10:38.947Z,6.5
2016-04-10T00:13:49.127Z,6.6
2016-04-10T00:17:03.776Z,6.6
2016-04-10T00:20:06.471Z,6.6
2016-04-10T00:23:16.339Z,6.6
2016-04-10T00:26:27.490Z,6.5
2016-04-10T00:29:37.514Z,6.5
2016-04-10T00:32:52.147Z,6.5
2016-04-10T00:39:09.430Z,6.4
2016-04-10T00:42:19.593Z,6.4
2016-04-10T00:45:30.119Z,6.4
2016-04-10T00:48:46.752Z,6.4
2016-04-10T00:51:59.792Z,6.4
2016-04-10T00:55:07.300Z,6.4
2016-04-10T00:58:09.980Z,6.4
2016-04-10T01:01:22.534Z,6.5
2016-04-10T01:04:32.858Z,6.5
2016-04-10T01:07:45.738Z,6.4
2016-04-10T01:11:03.209Z,6.4
2016-04-10T01:14:06.042Z,6.4
2016-04-10T01:17:15.546Z,6.4
2016-04-10T01:20:28.278Z,6.3
2016-04-10T01:23:40.838Z,6.3
2016-04-10T01:26:52.834Z,6.4
2016-04-10T01:30:07.752Z,6.3
2016-04-10T01:33:10.542Z,6.3
2016-04-10T01:36:23.035Z,6.3
2016-04-10T01:39:31.781Z,6.2
2016-04-10T01:42:43.867Z,6.2
2016-04-10T01:45:54.579Z,6.2
2016-04-10T01:49:08.806Z,6.2
2016-04-10T01:52:11.578Z,6.2
2016-04-10T01:55:20.664Z,6.2
2016-04-10T01:58:32.894Z,6.2
2016-04-10T02:01:45.246Z,6.2
2016-04-10T02:05:02.473Z,6.1
2016-04-10T02:08:05.074Z,6.1
2016-04-10T02:11:16.302Z,6.2
2016-04-10T02:14:25.716Z,6.1
2016-04-10T02:17:36.758Z,6.1
2016-04-10T02:20:46.563Z,6.1
2016-04-10T02:24:04.196Z,6.1
2016-04-10T02:27:06.719Z,6.2
2016-04-10T02:30:19.150Z,6.2
2016-04-10T02:33:31.286Z,6.2
2016-04-10T02:36:43.824Z,6.1
2016-04-10T02:39:52.801Z,6.1
2016-04-10T02:43:09.185Z,6.1
2016-04-10T02:46:11.724Z,6.1
2016-04-10T02:49:23.732Z,6.1
2016-04-10T02:52:35.977Z,6.1
2016-04-10T02:55:46.111Z,6.1
2016-04-10T02:59:05.900Z,6.1
2016-04-10T03:02:08.454Z,6.1
2016-04-10T03:05:20.635Z,6.1
2016-04-10T03:08:33.117Z,6
2016-04-10T03:11:42.203Z,6
2016-04-10T03:14:52.492Z,6
2016-04-10T03:18:09.344Z,6
2016-04-10T03:21:11.790Z,6
2016-04-10T03:24:23.345Z,6
2016-04-10T03:27:35.481Z,6
2016-04-10T03:30:47.957Z,6
2016-04-10T03:34:05.200Z,6
2016-04-10T03:37:07.614Z,6
2016-04-10T03:40:18.231Z,6
2016-04-10T03:43:28.099Z,6
2016-04-10T03:46:40.594Z,6.1
2016-04-10T03:49:50.336Z,6.1
2016-04-10T03:53:07.720Z,6.1
2016-04-10T03:56:14.243Z,6
2016-04-10T03:59:22.361Z,5.9
2016-04-10T04:02:34.731Z,5.9
2016-04-10T04:05:47.176Z,6
2016-04-10T04:09:03.450Z,6
2016-04-10T04:12:06.053Z,5.9
2016-04-10T04:15:16.232Z,5.9
2016-04-10T04:18:28.208Z,6
2016-04-10T04:21:40.813Z,5.9
2016-04-10T04:24:52.587Z,6
2016-04-10T04:28:07.626Z,6
2016-04-10T04:31:10.603Z,5.9
2016-04-10T04:34:20.034Z,5.9
2016-04-10T04:37:30.275Z,5.9
2016-04-10T04:40:42.755Z,6
2016-04-10T04:43:55.107Z,6
2016-04-10T04:47:10.240Z,6
2016-04-10T04:50:12.862Z,6
2016-04-10T04:53:25.510Z,6.1
2016-04-10T04:56:35.475Z,6.1
2016-04-10T04:59:48.092Z,6.1
2016-04-10T05:03:03.131Z,6.1
2016-04-10T05:06:05.983Z,6.2
2016-04-10T05:09:18.553Z,6.2
2016-04-10T05:12:28.827Z,6.2
2016-04-10T05:15:38.432Z,6.2
2016-04-10T05:18:48.535Z,6.3
2016-04-10T05:22:06.121Z,6.4
2016-04-10T05:25:08.847Z,6.4
2016-04-10T05:28:19.026Z,6.4
2016-04-10T05:31:31.737Z,6.4
2016-04-10T05:34:44.281Z,6.4
2016-04-10T05:38:01.804Z,6.5
2016-04-10T05:41:09.828Z,6.6
2016-04-10T05:44:12.586Z,6.6
2016-04-10T05:47:22.499Z,6.6
2016-04-10T05:50:35.027Z,6.6
2016-04-10T05:53:44.893Z,6.6
2016-04-10T05:57:02.464Z,6.6
2016-04-10T06:00:10.112Z,6.6
2016-04-10T06:03:12.902Z,6.7
2016-04-10T06:06:25.161Z,6.7
2016-04-10T06:09:36.577Z,6.8
2016-04-10T06:12:46.210Z,6.9
2016-04-10T06:16:03.640Z,7
2016-04-10T06:19:06.382Z,7.1
2016-04-10T06:22:18.985Z,7.3
2016-04-10T06:25:31.803Z,7.4
2016-04-10T06:28:44.387Z,7.5
2016-04-10T06:31:55.223Z,7.6
2016-04-10T06:35:06.169Z,7.6
2016-04-10T06:38:19.084Z,7.7
2016-04-10T06:41:29.482Z,7.8
2016-04-10T06:44:39.414Z,7.8
2016-04-10T06:47:52.313Z,7.9
2016-04-10T06:51:07.837Z,7.9
2016-04-10T06:54:10.845Z,7.9
2016-04-10T06:57:20.805Z,7.9
2016-04-10T07:00:33.735Z,7.9
2016-04-10T07:03:43.794Z,8
2016-04-10T07:07:01.473Z,8
2016-04-10T07:10:09.044Z,7.9
2016-04-10T07:13:11.989Z,7.9
2016-04-10T07:16:22.529Z,7.9
2016-04-10T07:19:37.758Z,7.8
2016-04-10T07:22:50.032Z,7.8
2016-04-10T07:26:06.166Z,7.8
2016-04-10T07:29:08.924Z,7.8
2016-04-10T07:32:19.275Z,7.8
2016-04-10T07:35:26.377Z,7.8
2016-04-10T07:38:41.231Z,8
2016-04-10T07:41:52.334Z,8.1
2016-04-10T07:45:09.107Z,8.2
2016-04-10T07:48:11.881Z,8.3
2016-04-10T07:51:24.529Z,8.3
2016-04-10T07:54:35.337Z,8.3
2016-04-10T07:57:47.752Z,8.3
2016-04-10T08:01:05.307Z,8.3
2016-04-10T08:04:08.143Z,8.3
2016-04-10T08:07:18.948Z,8.3
2016-04-10T08:10:31.831Z,8.4
2016-04-10T08:13:42.591Z,8.4
2016-04-10T08:16:55.036Z,8.5
2016-04-10T08:20:07.576Z,8.6
2016-04-10T08:23:16.397Z,8.7
2016-04-10T08:26:29.091Z,8.6
2016-04-10T08:29:41.885Z,8.6
2016-04-10T08:32:51.596Z,8.5
2016-04-10T08:36:09.104Z,8.5
2016-04-10T08:39:12.018Z,8.5
2016-04-10T08:42:22.401Z,8.5
2016-04-10T08:45:34.784Z,8.5
2016-04-10T08:48:45.731Z,8.6
2016-04-10T08:52:03.380Z,8.7
2016-04-10T08:55:11.483Z,8.8
2016-04-10T08:58:14.335Z,8.9
2016-04-10T09:01:26.874Z,9
2016-04-10T09:04:37.682Z,8.9
2016-04-10T09:07:50.440Z,8.8
2016-04-10T09:11:07.870Z,8.6
2016-04-10T09:14:10.753Z,8.5
2016-04-10T09:17:21.573Z,8.6
2016-04-10T09:20:30.628Z,8.7
2016-04-10T09:23:45.592Z,8.5
2016-04-10T09:26:55.850Z,8.3
2016-04-10T09:30:10.077Z,8.3
2016-04-10T09:33:12.850Z,8.4
2016-04-10T09:36:24.140Z,8.5
2016-04-10T09:39:33.695Z,8.5
2016-04-10T09:42:47.174Z,8.6
2016-04-10T09:45:52.276Z,8.7
2016-04-10T09:49:06.690Z,8.9
2016-04-10T09:52:09.605Z,8.8
2016-04-10T09:55:18.628Z,8.9
2016-04-10T09:58:31.434Z,9.2
2016-04-10T10:01:44.460Z,9.4
2016-04-10T10:04:57.280Z,9.5
2016-04-10T10:08:09.930Z,9.5
2016-04-10T10:11:20.239Z,9.5
2016-04-10T10:14:33.188Z,9.4
2016-04-10T10:17:46.197Z,9.3
2016-04-10T10:20:59.329Z,9.3
2016-04-10T10:24:14.919Z,9.3
2016-04-10T10:27:17.847Z,9.2
2016-04-10T10:30:28.470Z,9
2016-04-10T10:33:40.752Z,8.8
2016-04-10T10:36:51.308Z,8.7
2016-04-10T10:40:09.067Z,8.6
2016-04-10T10:43:12.013Z,8.7
2016-04-10T10:46:24.913Z,8.7
2016-04-10T10:49:37.889Z,8.8
2016-04-10T10:52:50.587Z,9
2016-04-10T10:56:08.267Z,9.2
2016-04-10T10:59:11.337Z,9.2
2016-04-10T11:02:24.190Z,9.2
2016-04-10T11:05:35.401Z,9.4
2016-04-10T11:08:48.006Z,9.6
2016-04-10T11:11:58.014Z,9.6
2016-04-10T11:15:13.178Z,9.7
2016-04-10T11:18:16.374Z,9.8
2016-04-10T11:21:25.787Z,9.9
2016-04-10T11:24:38.736Z,10
2016-04-10T11:27:47.775Z,10
2016-04-10T11:30:56.783Z,10
2016-04-10T11:34:14.666Z,10.1
2016-04-10T11:37:17.845Z,10.1
2016-04-10T11:40:28.104Z,10.1
2016-04-10T11:43:39.146Z,10.2
2016-04-10T11:46:48.920Z,10.3
2016-04-10T11:49:59.178Z,10.3
2016-04-10T11:53:15.436Z,10.3
2016-04-10T11:56:16.226Z,10.2
2016-04-10T11:59:31.296Z,9.9
2016-04-10T12:02:44.151Z,9.6
2016-04-10T12:05:55.065Z,9.3
2016-04-10T12:09:12.854Z,9.2
2016-04-10T12:12:15.893Z,9
2016-04-10T12:15:28.760Z,8.9
2016-04-10T12:18:38.097Z,8.9
2016-04-10T12:21:50.670Z,8.9
2016-04-10T12:25:07.647Z,9.1
2016-04-10T12:28:15.765Z,9.1
2016-04-10T12:31:18.773Z,9.2
2016-04-10T12:34:31.656Z,9.1
2016-04-10T12:37:41.088Z,9
2016-04-10T12:40:53.956Z,9
2016-04-10T12:44:11.526Z,8.9
2016-04-10T12:47:14.488Z,8.9
2016-04-10T12:50:27.307Z,8.9
2016-04-10T12:53:38.957Z,9
2016-04-10T12:56:48.577Z,9.1
2016-04-10T13:00:00.819Z,9.2
2016-04-10T13:03:11.968Z,9.3
2016-04-10T13:06:22.679Z,9.4
2016-04-10T13:09:37.578Z,9.6
2016-04-10T13:12:49.198Z,9.7
2016-04-10T13:16:06.534Z,9.7
2016-04-10T13:19:14.683Z,9.6
2016-04-10T13:22:17.597Z,9.5
2016-04-10T13:25:26.590Z,9.2
2016-04-10T13:28:39.256Z,9
2016-04-10T13:31:51.873Z,9.1
2016-04-10T13:35:10.179Z,9.3
2016-04-10T13:38:13.281Z,9.5
2016-04-10T13:41:24.367Z,9.4
2016-04-10T13:44:33.907Z,9.4
2016-04-10T13:47:48.902Z,9.4
2016-04-10T13:50:59.128Z,9.4
2016-04-10T13:54:12.152Z,9.6
2016-04-10T13:57:24.676Z,9.6
2016-04-10T14:00:37.668Z,9.5
2016-04-10T14:03:50.585Z,9.4
2016-04-10T14:07:08.531Z,9.3
2016-04-10T14:10:11.570Z,9.4
2016-04-10T14:13:24.375Z,9.4
2016-04-10T14:16:33.742Z,9.4
2016-04-10T14:19:45.206Z,9.4
2016-04-10T14:22:57.761Z,9.3
2016-04-10T14:26:15.800Z,9.3
2016-04-10T14:29:18.808Z,9.2
2016-04-10T14:32:31.723Z,9.2
2016-04-10T14:35:43.312Z,9.2
2016-04-10T14:38:54.523Z,9.1
2016-04-10T14:42:12.328Z,9
2016-04-10T14:45:15.273Z,9.1
2016-04-10T14:48:27.781Z,9.2
2016-04-10T14:51:40.510Z,9.3
2016-04-10T14:54:51.191Z,9.2
2016-04-10T14:57:59.965Z,9.2
2016-04-10T15:01:12.848Z,9.1
2016-04-10T15:04:25.856Z,9.1
2016-04-10T15:07:38.458Z,9.1
2016-04-10T15:10:51.187Z,9
2016-04-10T15:14:08.726Z,8.9
2016-04-10T15:17:16.719Z,8.7
2016-04-10T15:20:19.774Z,8.6
2016-04-10T15:23:32.517Z,8.5
2016-04-10T15:26:45.386Z,8.5
2016-04-10T15:29:56.269Z,8.4
2016-04-10T15:33:11.730Z,8.3
2016-04-10T15:36:14.785Z,8.3
2016-04-10T15:39:27.668Z,8.3
2016-04-10T15:42:38.301Z,8.3
2016-04-10T15:45:49.312Z,8.3
2016-04-10T15:52:12.766Z,8.5
2016-04-10T15:55:25.508Z,8.5
2016-04-10T15:58:38.376Z,8.5
2016-04-10T16:01:53.074Z,8.6
2016-04-10T16:04:56.098Z,8.7
2016-04-10T16:08:08.746Z,8.7
2016-04-10T16:11:19.536Z,8.8
2016-04-10T16:14:29.559Z,8.9
2016-04-10T16:17:44.773Z,8.9
2016-04-10T16:20:52.735Z,8.8
2016-04-10T16:23:55.852Z,8.8
2016-04-10T16:27:06.110Z,8.8
2016-04-10T16:30:19.072Z,8.8
2016-04-10T16:33:29.173Z,8.9
2016-04-10T16:36:46.840Z,8.9
2016-04-10T16:39:49.926Z,8.9
2016-04-10T16:43:01.840Z,8.9
2016-04-10T16:46:11.802Z,8.9
2016-04-10T16:49:21.389Z,8.8
2016-04-10T16:52:34.192Z,8.8
2016-04-10T16:55:51.923Z,8.7
2016-04-10T16:58:54.962Z,8.7
2016-04-10T17:02:04.955Z,8.6
2016-04-10T17:05:17.416Z,8.4
2016-04-10T17:08:26.939Z,8.3
2016-04-10T17:11:37.354Z,8.4
2016-04-10T17:14:52.536Z,8.4
2016-04-10T17:17:55.341Z,8.4
2016-04-10T17:21:08.271Z,8.3
2016-04-10T17:24:16.623Z,8.3
2016-04-10T17:27:31.678Z,8.2
2016-04-10T17:30:49.517Z,8.2
2016-04-10T17:33:52.541Z,8.2
2016-04-10T17:37:02.642Z,8.1
2016-04-10T17:40:15.447Z,8
2016-04-10T17:43:28.095Z,8
2016-04-10T17:46:45.526Z,8
2016-04-10T17:49:53.381Z,8
2016-04-10T17:52:56.326Z,7.9
2016-04-10T17:56:09.069Z,7.9
2016-04-10T17:59:18.889Z,7.7
2016-04-10T18:02:31.678Z,7.7
2016-04-10T18:05:47.235Z,7.6
2016-04-10T18:08:50.275Z,7.5
2016-04-10T18:12:02.471Z,7.5
2016-04-10T18:15:12.838Z,7.5
2016-04-10T18:18:25.393Z,7.5
2016-04-10T18:21:38.057Z,7.5
2016-04-10T18:24:50.661Z,7.4
2016-04-10T18:28:03.436Z,7.4
2016-04-10T18:31:15.975Z,7.4
2016-04-10T18:34:26.577Z,7.3
2016-04-10T18:37:45.866Z,7.3
2016-04-10T18:40:53.783Z,7.2
2016-04-10T18:43:56.604Z,7.1
2016-04-10T18:47:07.393Z,7
2016-04-10T18:50:20.026Z,7
2016-04-10T18:53:32.518Z,6.9
2016-04-10T18:56:50.154Z,6.8
2016-04-10T18:59:53.022Z,6.7
2016-04-10T19:03:04.874Z,6.6
2016-04-10T19:06:14.257Z,6.5
2016-04-10T19:09:26.858Z,6.5
2016-04-10T19:12:39.226Z,6.4
2016-04-10T19:15:51.862Z,6.3
2016-04-10T19:19:04.693Z,6.2
2016-04-10T19:22:17.515Z,6.2
2016-04-10T19:25:30.138Z,6.1
2016-04-10T19:28:47.582Z,6
2016-04-10T19:31:50.404Z,6
2016-04-10T19:35:00.559Z,5.9
2016-04-10T19:38:11.541Z,5.8
2016-04-10T19:41:24.020Z,5.8
2016-04-10T19:44:39.404Z,5.7
2016-04-10T19:47:54.088Z,5.7
2016-04-10T19:50:56.785Z,5.6
2016-04-10T19:54:08.918Z,5.6
2016-04-10T19:57:21.269Z,5.5
2016-04-10T20:00:33.996Z,5.5
2016-04-10T20:03:51.320Z,5.4
2016-04-10T20:06:54.045Z,5.4
2016-04-10T20:10:06.679Z,5.3
2016-04-10T20:13:19.140Z,5.3
2016-04-10T20:16:31.836Z,5.2
2016-04-10T20:19:47.844Z,5.1
2016-04-10T20:22:50.432Z,5.1
2016-04-10T20:26:02.847Z,5.1
2016-04-10T20:29:13.901Z,5
2016-04-10T20:32:23.956Z,5
2016-04-10T20:35:36.496Z,5
2016-04-10T20:38:54.085Z,4.9
2016-04-10T20:41:56.844Z,4.9
2016-04-10T20:45:06.913Z,4.8
2016-04-10T20:48:19.218Z,4.8
2016-04-10T20:51:30.148Z,4.9
2016-04-10T20:54:39.266Z,4.9
2016-04-10T20:57:51.479Z,4.9
2016-04-10T21:01:02.347Z,5
2016-04-10T21:04:14.715Z,5
2016-04-10T21:07:27.098Z,5
2016-04-10T21:10:36.731Z,5
2016-04-10T21:13:50.817Z,5
2016-04-10T21:16:53.500Z,4.9
2016-04-10T21:20:04.055Z,4.9
2016-04-10T21:23:16.531Z,4.9
2016-04-10T21:26:27.087Z,4.9
2016-04-10T21:29:39.548Z,4.9
2016-04-10T21:32:51.509Z,4.9
2016-04-10T21:36:03.645Z,4.9
2016-04-10T21:39:16.122Z,4.9
2016-04-10T21:42:28.660Z,4.9
2016-04-10T21:45:38.825Z,4.8
2016-04-10T21:48:53.539Z,4.8
2016-04-10T21:51:56.171Z,4.8
2016-04-10T21:55:08.415Z,4.8
2016-04-10T21:58:20.813Z,4.8
2016-04-10T22:01:33.243Z,4.7
2016-04-10T22:04:50.689Z,4.7
2016-04-10T22:07:53.121Z,4.6
2016-04-10T22:11:06.036Z,4.6
2016-04-10T22:14:17.824Z,4.6
2016-04-10T22:17:28.364Z,4.5
2016-04-10T22:20:45.935Z,4.5
2016-04-10T22:23:53.539Z,4.5
2016-04-10T22:26:56.094Z,4.4
2016-04-10T22:30:05.055Z,4.4
2016-04-10T22:33:16.845Z,4.3
2016-04-10T22:36:26.056Z,4.3
2016-04-10T22:39:35.361Z,4.2
2016-04-10T22:42:52.853Z,4.2
2016-04-10T22:45:55.489Z,4.2
2016-04-10T22:49:07.825Z,4.1
2016-04-10T22:52:20.474Z,4.1
2016-04-10T22:55:32.919Z,4.1
2016-04-10T22:58:50.380Z,4.1
2016-04-10T23:01:52.935Z,4
2016-04-10T23:05:05.196Z,4
2016-04-10T23:08:17.392Z,4
2016-04-10T23:11:26.744Z,4
2016-04-10T23:14:37.159Z,4
2016-04-10T23:17:54.013Z,3.9
2016-04-10T23:20:56.505Z,3.9
2016-04-10T23:24:08.560Z,3.9
2016-04-10T23:27:18.038Z,3.9
2016-04-10T23:30:30.295Z,3.8
2016-04-10T23:33:47.365Z,3.9
2016-04-10T23:36:54.787Z,3.9
2016-04-10T23:39:57.389Z,3.9
2016-04-10T23:43:05.741Z,4
2016-04-10T23:46:17.859Z,4
2016-04-10T23:49:30.179Z,4.1
2016-04-10T23:52:47.562Z,4.1
2016-04-10T23:55:55.041Z,4.2
2016-04-10T23:58:57.503Z,4.2
